GTI8998 CYVR-PANC
Flight info
| Callsign | GTI8998 |
|---|---|
| Flight time | N/A |
| Altitude | 34000 |
| Route | UQQ DCT AKWAY DCT MACIE Q801 JOH WITTI5 |
| Aircraft | B77L/H-SDE1E2E3FGHIJ2J3J4J5M1RWXY/LB1D1 |
Departure
| Time | 2026-05-03 23:29 |
|---|---|
| Airport | Vancouver International Airport (CYVR) |
Arrival
| Time | N/A |
|---|---|
| Airport | Ted Stevens Anchorage International Airport (PANC) |
| Time | Latitude | Longitude | Altitude | Speed | Heading |
|---|---|---|---|---|---|
| 2026-05-03 23:02 | 49.18922 | -123.17424 | 27 ft | 0 kts | 341° |
| 2026-05-03 23:20 | 49.18905 | -123.17413 | 27 ft | 4 kts | 328° |
| 2026-05-03 23:20 | 49.18886 | -123.17395 | 26 ft | 4 kts | 337° |
| 2026-05-03 23:21 | 49.18861 | -123.17387 | 27 ft | 4 kts | 15° |
| 2026-05-03 23:21 | 49.18842 | -123.17407 | 26 ft | 4 kts | 69° |
| 2026-05-03 23:21 | 49.18840 | -123.17445 | 25 ft | 4 kts | 99° |
| 2026-05-03 23:21 | 49.18844 | -123.17478 | 26 ft | 0 kts | 99° |
| 2026-05-03 23:24 | 49.18842 | -123.17463 | 26 ft | 3 kts | 99° |
| 2026-05-03 23:24 | 49.18838 | -123.17424 | 25 ft | 5 kts | 100° |
| 2026-05-03 23:24 | 49.18831 | -123.17359 | 28 ft | 8 kts | 100° |
| 2026-05-03 23:24 | 49.18819 | -123.17261 | 54 ft | 11 kts | 100° |
| 2026-05-03 23:25 | 49.18805 | -123.17129 | 27 ft | 14 kts | 99° |
| 2026-05-03 23:25 | 49.18787 | -123.16969 | 27 ft | 16 kts | 99° |
| 2026-05-03 23:25 | 49.18768 | -123.16801 | 27 ft | 16 kts | 99° |
| 2026-05-03 23:25 | 49.18749 | -123.16633 | 27 ft | 16 kts | 99° |
| 2026-05-03 23:26 | 49.18729 | -123.16465 | 27 ft | 16 kts | 100° |
| 2026-05-03 23:26 | 49.18702 | -123.16302 | 27 ft | 16 kts | 116° |
| 2026-05-03 23:26 | 49.18637 | -123.16166 | 28 ft | 16 kts | 109° |
| 2026-05-03 23:26 | 49.18601 | -123.16049 | 28 ft | 6 kts | 147° |
| 2026-05-03 23:27 | 49.18598 | -123.16047 | 28 ft | 0 kts | 151° |
| 2026-05-03 23:27 | 49.18592 | -123.16044 | 28 ft | 3 kts | 160° |
| 2026-05-03 23:28 | 49.18544 | -123.16042 | 29 ft | 12 kts | 186° |
| 2026-05-03 23:28 | 49.18481 | -123.16156 | 28 ft | 21 kts | 275° |
| 2026-05-03 23:28 | 49.18519 | -123.16494 | 27 ft | 48 kts | 280° |
| 2026-05-03 23:28 | 49.18615 | -123.17330 | 28 ft | 117 kts | 279° |
| 2026-05-03 23:29 | 49.18781 | -123.18821 | 34 ft | 163 kts | 280° |
| 2026-05-03 23:29 | 49.18954 | -123.20554 | 478 ft | 166 kts | 279° |
| 2026-05-03 23:29 | 49.19149 | -123.22336 | 995 ft | 173 kts | 281° |
| 2026-05-03 23:29 | 49.19348 | -123.24152 | 1579 ft | 174 kts | 280° |
| 2026-05-03 23:30 | 49.19524 | -123.26013 | 2013 ft | 183 kts | 279° |
| 2026-05-03 23:30 | 49.19690 | -123.27976 | 2484 ft | 188 kts | 278° |
| 2026-05-03 23:30 | 49.19867 | -123.29990 | 2919 ft | 192 kts | 279° |
| 2026-05-03 23:30 | 49.20079 | -123.32053 | 3390 ft | 201 kts | 279° |
| 2026-05-03 23:31 | 49.20292 | -123.34204 | 3865 ft | 208 kts | 279° |
| 2026-05-03 23:31 | 49.20668 | -123.36338 | 4269 ft | 211 kts | 297° |
| 2026-05-03 23:31 | 49.21400 | -123.38323 | 4785 ft | 219 kts | 300° |
| 2026-05-03 23:31 | 49.22161 | -123.40436 | 5190 ft | 233 kts | 299° |
| 2026-05-03 23:32 | 49.22936 | -123.42640 | 5658 ft | 236 kts | 299° |
| 2026-05-03 23:32 | 49.23710 | -123.44867 | 6111 ft | 238 kts | 299° |
| 2026-05-03 23:32 | 49.24498 | -123.47154 | 6591 ft | 249 kts | 299° |
| 2026-05-03 23:32 | 49.25319 | -123.49549 | 7040 ft | 259 kts | 299° |
| 2026-05-03 23:33 | 49.26160 | -123.52018 | 7499 ft | 263 kts | 299° |
| 2026-05-03 23:33 | 49.27022 | -123.54560 | 7971 ft | 275 kts | 299° |
| 2026-05-03 23:33 | 49.27913 | -123.57195 | 8497 ft | 287 kts | 299° |
| 2026-05-03 23:33 | 49.28842 | -123.59951 | 9001 ft | 293 kts | 298° |
| 2026-05-03 23:34 | 49.29776 | -123.62733 | 9464 ft | 293 kts | 298° |
| 2026-05-03 23:34 | 49.30710 | -123.65519 | 9939 ft | 294 kts | 298° |
| 2026-05-03 23:34 | 49.31643 | -123.68306 | 10385 ft | 294 kts | 298° |
| 2026-05-03 23:34 | 49.32577 | -123.71100 | 10833 ft | 295 kts | 298° |
| 2026-05-03 23:35 | 49.33513 | -123.73903 | 11292 ft | 296 kts | 298° |
| 2026-05-03 23:35 | 49.34455 | -123.76730 | 11769 ft | 298 kts | 298° |
| 2026-05-03 23:35 | 49.35404 | -123.79578 | 12265 ft | 304 kts | 298° |
| 2026-05-03 23:35 | 49.36369 | -123.82479 | 12753 ft | 313 kts | 298° |
| 2026-05-03 23:36 | 49.37373 | -123.85497 | 13249 ft | 323 kts | 298° |
| 2026-05-03 23:36 | 49.38407 | -123.88610 | 13751 ft | 332 kts | 298° |
| 2026-05-03 23:36 | 49.39475 | -123.91830 | 14204 ft | 341 kts | 298° |
| 2026-05-03 23:36 | 49.40568 | -123.95130 | 14640 ft | 350 kts | 298° |
| 2026-05-03 23:37 | 49.41694 | -123.98535 | 14923 ft | 369 kts | 299° |
| 2026-05-03 23:37 | 49.42894 | -124.02161 | 15167 ft | 391 kts | 298° |
| 2026-05-03 23:37 | 49.44141 | -124.05942 | 15764 ft | 401 kts | 298° |
| 2026-05-03 23:37 | 49.45408 | -124.09798 | 16483 ft | 407 kts | 298° |
| 2026-05-03 23:38 | 49.46690 | -124.13704 | 17293 ft | 411 kts | 299° |
| 2026-05-03 23:38 | 49.47966 | -124.17598 | 18085 ft | 416 kts | 299° |
| 2026-05-03 23:38 | 49.49278 | -124.21601 | 18761 ft | 421 kts | 299° |
| 2026-05-03 23:38 | 49.50598 | -124.25637 | 19470 ft | 424 kts | 299° |
| 2026-05-03 23:39 | 49.51925 | -124.29705 | 20191 ft | 426 kts | 299° |
| 2026-05-03 23:39 | 49.53257 | -124.33793 | 20869 ft | 430 kts | 300° |
| 2026-05-03 23:39 | 49.54601 | -124.37923 | 21545 ft | 434 kts | 300° |
| 2026-05-03 23:39 | 49.55962 | -124.42110 | 22193 ft | 438 kts | 300° |
| 2026-05-03 23:40 | 49.57330 | -124.46326 | 22849 ft | 441 kts | 300° |
| 2026-05-03 23:40 | 49.58708 | -124.50580 | 23529 ft | 445 kts | 300° |
| 2026-05-03 23:40 | 49.60075 | -124.54810 | 24056 ft | 448 kts | 300° |
| 2026-05-03 23:40 | 49.61488 | -124.59186 | 24609 ft | 452 kts | 300° |
| 2026-05-03 23:41 | 49.62872 | -124.63484 | 25140 ft | 455 kts | 300° |
| 2026-05-03 23:41 | 49.64283 | -124.67873 | 25692 ft | 458 kts | 300° |
| 2026-05-03 23:41 | 49.65699 | -124.72286 | 26210 ft | 461 kts | 300° |
| 2026-05-03 23:41 | 49.67128 | -124.76741 | 26714 ft | 464 kts | 300° |
| 2026-05-03 23:42 | 49.68563 | -124.81223 | 27213 ft | 468 kts | 300° |
| 2026-05-03 23:42 | 49.70125 | -124.85649 | 27703 ft | 468 kts | 306° |
| 2026-05-03 23:42 | 49.72042 | -124.89707 | 28184 ft | 468 kts | 313° |
| 2026-05-03 23:42 | 49.74235 | -124.93451 | 28690 ft | 468 kts | 319° |
| 2026-05-03 23:43 | 49.76677 | -124.96774 | 29117 ft | 469 kts | 323° |
| 2026-05-03 23:43 | 49.79206 | -124.99988 | 29622 ft | 470 kts | 323° |
| 2026-05-03 23:43 | 49.81736 | -125.03181 | 30164 ft | 469 kts | 323° |
| 2026-05-03 23:43 | 49.84254 | -125.06370 | 30738 ft | 466 kts | 323° |
| 2026-05-03 23:44 | 49.86743 | -125.09542 | 31356 ft | 461 kts | 324° |
| 2026-05-03 23:44 | 49.89177 | -125.12663 | 31940 ft | 458 kts | 324° |
| 2026-05-03 23:44 | 49.91624 | -125.15818 | 32472 ft | 456 kts | 324° |
| 2026-05-03 23:44 | 49.94053 | -125.18961 | 32967 ft | 454 kts | 324° |
| 2026-05-03 23:45 | 49.96469 | -125.22095 | 33485 ft | 451 kts | 324° |
| 2026-05-03 23:45 | 49.98872 | -125.25219 | 33984 ft | 449 kts | 324° |
| 2026-05-03 23:45 | 50.03691 | -125.31491 | 34466 ft | 451 kts | 324° |
| 2026-05-03 23:46 | 50.06088 | -125.34618 | 34965 ft | 446 kts | 324° |
| 2026-05-03 23:46 | 50.08450 | -125.37707 | 35465 ft | 442 kts | 324° |
| 2026-05-03 23:46 | 50.10800 | -125.40785 | 35879 ft | 440 kts | 324° |
| 2026-05-03 23:46 | 50.13153 | -125.43867 | 35985 ft | 444 kts | 325° |
| 2026-05-03 23:47 | 50.17874 | -125.50058 | 35977 ft | 441 kts | 324° |
| 2026-05-03 23:47 | 50.22511 | -125.56166 | 35995 ft | 437 kts | 324° |
| 2026-05-03 23:48 | 50.27148 | -125.62283 | 36001 ft | 435 kts | 324° |
| 2026-05-03 23:48 | 50.31771 | -125.68399 | 36012 ft | 435 kts | 324° |
| 2026-05-03 23:49 | 50.36397 | -125.74531 | 36017 ft | 436 kts | 324° |
| 2026-05-03 23:49 | 50.41034 | -125.80696 | 36014 ft | 438 kts | 324° |
| 2026-05-03 23:50 | 50.44895 | -125.85843 | 36011 ft | 439 kts | 324° |
| 2026-05-03 23:50 | 50.50350 | -125.93135 | 36015 ft | 440 kts | 324° |
| 2026-05-03 23:51 | 50.54974 | -125.99334 | 36030 ft | 438 kts | 324° |
| 2026-05-03 23:51 | 50.59616 | -126.05573 | 36018 ft | 440 kts | 324° |
| 2026-05-03 23:52 | 50.64261 | -126.11835 | 36048 ft | 439 kts | 323° |
| 2026-05-03 23:52 | 50.68912 | -126.18121 | 36030 ft | 439 kts | 324° |
| 2026-05-03 23:53 | 50.73538 | -126.24391 | 35948 ft | 436 kts | 323° |
| 2026-05-03 23:53 | 50.75835 | -126.27514 | 35692 ft | 436 kts | 323° |
| 2026-05-03 23:53 | 50.78137 | -126.30644 | 35348 ft | 438 kts | 323° |
| 2026-05-03 23:54 | 50.80451 | -126.33795 | 34986 ft | 440 kts | 323° |
| 2026-05-03 23:54 | 50.82750 | -126.36922 | 34619 ft | 442 kts | 323° |
| 2026-05-03 23:54 | 50.85085 | -126.40106 | 34270 ft | 443 kts | 323° |
| 2026-05-03 23:54 | 50.87419 | -126.43300 | 34075 ft | 444 kts | 322° |
| 2026-05-03 23:55 | 50.92112 | -126.49737 | 34030 ft | 446 kts | 322° |
| 2026-05-03 23:55 | 50.96774 | -126.56143 | 34009 ft | 441 kts | 322° |
| 2026-05-03 23:56 | 51.01418 | -126.62543 | 34028 ft | 443 kts | 322° |
| 2026-05-03 23:56 | 51.06059 | -126.68951 | 33993 ft | 445 kts | 322° |
| 2026-05-03 23:57 | 51.10707 | -126.75396 | 34027 ft | 444 kts | 321° |
| 2026-05-03 23:57 | 51.15368 | -126.81867 | 34001 ft | 445 kts | 322° |
| 2026-05-03 23:58 | 51.20029 | -126.88362 | 34019 ft | 446 kts | 321° |
| 2026-05-03 23:58 | 51.24703 | -126.94893 | 34024 ft | 445 kts | 321° |
| 2026-05-03 23:59 | 51.29362 | -127.01411 | 34011 ft | 446 kts | 321° |
| 2026-05-03 23:59 | 51.34020 | -127.07950 | 34015 ft | 446 kts | 321° |
| 2026-05-04 00:00 | 51.38669 | -127.14503 | 34047 ft | 444 kts | 321° |
| 2026-05-04 00:00 | 51.43283 | -127.21015 | 34003 ft | 444 kts | 321° |
| 2026-05-04 00:01 | 51.47908 | -127.27578 | 34056 ft | 443 kts | 321° |
| 2026-05-04 00:01 | 51.52522 | -127.34134 | 34018 ft | 443 kts | 320° |
| 2026-05-04 00:02 | 51.57124 | -127.40695 | 34030 ft | 442 kts | 320° |
| 2026-05-04 00:02 | 51.61731 | -127.47272 | 34043 ft | 442 kts | 320° |
| 2026-05-04 00:03 | 51.66309 | -127.53828 | 34044 ft | 442 kts | 320° |
| 2026-05-04 00:03 | 51.70899 | -127.60423 | 34040 ft | 442 kts | 320° |
| 2026-05-04 00:04 | 51.75490 | -127.67036 | 34036 ft | 442 kts | 320° |
| 2026-05-04 00:04 | 51.80077 | -127.73666 | 34061 ft | 442 kts | 320° |
| 2026-05-04 00:05 | 51.84663 | -127.80312 | 34023 ft | 443 kts | 320° |
| 2026-05-04 00:05 | 51.89249 | -127.86978 | 34053 ft | 443 kts | 320° |
| 2026-05-04 00:06 | 51.93798 | -127.93607 | 34033 ft | 442 kts | 320° |
| 2026-05-04 00:06 | 51.98365 | -128.00285 | 34032 ft | 442 kts | 320° |
| 2026-05-04 00:07 | 52.02164 | -128.05859 | 34027 ft | 443 kts | 320° |
| 2026-05-04 00:07 | 52.06744 | -128.12581 | 34053 ft | 443 kts | 319° |
| 2026-05-04 00:08 | 52.11320 | -128.19320 | 34057 ft | 442 kts | 319° |
| 2026-05-04 00:08 | 52.15847 | -128.26009 | 34046 ft | 441 kts | 319° |
| 2026-05-04 00:09 | 52.20402 | -128.32762 | 34057 ft | 441 kts | 319° |
| 2026-05-04 00:09 | 52.24934 | -128.39498 | 34035 ft | 441 kts | 319° |
| 2026-05-04 00:10 | 52.29464 | -128.46259 | 34027 ft | 440 kts | 319° |
| 2026-05-04 00:10 | 52.33948 | -128.52990 | 34038 ft | 440 kts | 319° |
| 2026-05-04 00:11 | 52.38467 | -128.59771 | 34025 ft | 440 kts | 319° |
| 2026-05-04 00:11 | 52.42982 | -128.66555 | 34039 ft | 440 kts | 319° |
| 2026-05-04 00:12 | 52.47492 | -128.73353 | 34046 ft | 441 kts | 318° |
| 2026-05-04 00:12 | 52.51998 | -128.80167 | 34049 ft | 440 kts | 318° |
| 2026-05-04 00:13 | 52.56486 | -128.86975 | 34036 ft | 440 kts | 318° |
| 2026-05-04 00:13 | 52.60991 | -128.93828 | 34062 ft | 440 kts | 318° |
| 2026-05-04 00:14 | 52.65455 | -129.00639 | 34048 ft | 441 kts | 318° |
| 2026-05-04 00:14 | 52.69951 | -129.07519 | 34063 ft | 441 kts | 318° |
| 2026-05-04 00:15 | 52.74437 | -129.14403 | 34064 ft | 441 kts | 318° |
| 2026-05-04 00:15 | 52.78924 | -129.21311 | 34079 ft | 441 kts | 318° |
| 2026-05-04 00:16 | 52.83410 | -129.28236 | 34063 ft | 443 kts | 317° |
| 2026-05-04 00:16 | 52.87864 | -129.35136 | 34068 ft | 438 kts | 317° |
| 2026-05-04 00:17 | 52.92298 | -129.42021 | 34074 ft | 435 kts | 317° |
| 2026-05-04 00:17 | 52.96681 | -129.48847 | 34078 ft | 434 kts | 317° |
| 2026-05-04 00:18 | 53.01079 | -129.55717 | 34086 ft | 434 kts | 317° |
| 2026-05-04 00:18 | 53.05489 | -129.62624 | 34085 ft | 436 kts | 317° |
| 2026-05-04 00:19 | 53.09916 | -129.69581 | 34091 ft | 438 kts | 317° |
| 2026-05-04 00:19 | 53.14331 | -129.76539 | 34097 ft | 440 kts | 317° |
| 2026-05-04 00:20 | 53.18777 | -129.83566 | 34107 ft | 441 kts | 317° |
| 2026-05-04 00:20 | 53.23227 | -129.90621 | 34117 ft | 441 kts | 316° |
| 2026-05-04 00:21 | 53.27681 | -129.97703 | 34121 ft | 441 kts | 316° |
| 2026-05-04 00:21 | 53.32119 | -130.04786 | 34139 ft | 440 kts | 316° |
| 2026-05-04 00:22 | 53.36545 | -130.11866 | 34127 ft | 439 kts | 316° |
| 2026-05-04 00:22 | 53.40924 | -130.18893 | 34156 ft | 438 kts | 316° |
| 2026-05-04 00:23 | 53.45327 | -130.25977 | 34178 ft | 437 kts | 316° |
| 2026-05-04 00:23 | 53.49717 | -130.33067 | 34187 ft | 437 kts | 316° |
| 2026-05-04 00:24 | 53.54098 | -130.40163 | 34175 ft | 437 kts | 316° |
| 2026-05-04 00:24 | 53.58454 | -130.47213 | 34194 ft | 437 kts | 316° |
| 2026-05-04 00:25 | 53.62835 | -130.54333 | 34193 ft | 438 kts | 315° |
| 2026-05-04 00:25 | 53.67213 | -130.61491 | 34187 ft | 438 kts | 315° |
| 2026-05-04 00:26 | 53.71589 | -130.68667 | 34195 ft | 438 kts | 315° |
| 2026-05-04 00:26 | 53.75934 | -130.75813 | 34196 ft | 438 kts | 315° |
| 2026-05-04 00:27 | 53.80309 | -130.83029 | 34201 ft | 439 kts | 315° |
| 2026-05-04 00:27 | 53.84672 | -130.90245 | 34204 ft | 439 kts | 315° |
| 2026-05-04 00:28 | 53.89036 | -130.97487 | 34207 ft | 438 kts | 315° |
| 2026-05-04 00:28 | 53.93388 | -131.04732 | 34226 ft | 438 kts | 315° |
| 2026-05-04 00:29 | 53.97733 | -131.11988 | 34223 ft | 438 kts | 315° |
| 2026-05-04 00:29 | 54.02042 | -131.19203 | 34254 ft | 437 kts | 314° |
| 2026-05-04 00:30 | 54.06366 | -131.26467 | 34242 ft | 436 kts | 314° |
| 2026-05-04 00:30 | 54.10683 | -131.33744 | 34272 ft | 435 kts | 314° |
| 2026-05-04 00:31 | 54.14957 | -131.40970 | 34270 ft | 435 kts | 314° |
| 2026-05-04 00:31 | 54.19250 | -131.48249 | 34288 ft | 435 kts | 314° |
| 2026-05-04 00:32 | 54.23541 | -131.55547 | 34288 ft | 435 kts | 314° |
| 2026-05-04 00:32 | 54.27824 | -131.62855 | 34288 ft | 435 kts | 314° |
| 2026-05-04 00:33 | 54.34245 | -131.73855 | 34288 ft | 435 kts | 314° |
| 2026-05-04 00:34 | 54.38520 | -131.81206 | 34286 ft | 435 kts | 314° |
| 2026-05-04 00:34 | 54.42770 | -131.88537 | 34288 ft | 435 kts | 313° |
| 2026-05-04 00:35 | 54.47032 | -131.95912 | 34281 ft | 434 kts | 313° |
| 2026-05-04 00:35 | 54.51282 | -132.03288 | 34277 ft | 433 kts | 313° |
| 2026-05-04 00:36 | 54.55635 | -132.10477 | 34263 ft | 433 kts | 315° |
| 2026-05-04 00:36 | 54.60072 | -132.17502 | 34271 ft | 433 kts | 315° |
| 2026-05-04 00:37 | 54.64501 | -132.24553 | 34254 ft | 433 kts | 315° |
| 2026-05-04 00:37 | 54.68909 | -132.31644 | 34256 ft | 433 kts | 314° |
| 2026-05-04 00:38 | 54.73291 | -132.38742 | 34259 ft | 433 kts | 314° |
| 2026-05-04 00:38 | 54.77685 | -132.45886 | 34254 ft | 433 kts | 314° |
| 2026-05-04 00:39 | 54.82086 | -132.53062 | 34262 ft | 434 kts | 314° |
| 2026-05-04 00:39 | 54.86479 | -132.60249 | 34260 ft | 434 kts | 314° |
| 2026-05-04 00:40 | 54.90879 | -132.67471 | 34276 ft | 435 kts | 314° |
| 2026-05-04 00:40 | 54.95244 | -132.74656 | 34270 ft | 435 kts | 314° |
| 2026-05-04 00:41 | 54.99633 | -132.81904 | 34282 ft | 435 kts | 314° |
| 2026-05-04 00:41 | 55.04024 | -132.89178 | 34293 ft | 435 kts | 313° |
| 2026-05-04 00:42 | 55.08421 | -132.96485 | 34291 ft | 436 kts | 313° |
| 2026-05-04 00:42 | 55.12807 | -133.03799 | 34298 ft | 436 kts | 313° |
| 2026-05-04 00:43 | 55.17193 | -133.11132 | 34305 ft | 436 kts | 313° |
| 2026-05-04 00:43 | 55.21549 | -133.18441 | 34302 ft | 437 kts | 313° |
| 2026-05-04 00:44 | 55.25939 | -133.25832 | 34302 ft | 437 kts | 313° |
| 2026-05-04 00:44 | 55.30325 | -133.33235 | 34308 ft | 438 kts | 312° |
| 2026-05-04 00:45 | 55.34709 | -133.40662 | 34300 ft | 438 kts | 312° |
| 2026-05-04 00:45 | 55.39092 | -133.48116 | 34313 ft | 438 kts | 312° |
| 2026-05-04 00:46 | 55.43441 | -133.55537 | 34311 ft | 438 kts | 312° |
| 2026-05-04 00:46 | 55.47815 | -133.63013 | 34317 ft | 439 kts | 312° |
| 2026-05-04 00:47 | 55.52194 | -133.70525 | 34320 ft | 438 kts | 311° |
| 2026-05-04 00:47 | 55.56562 | -133.78043 | 34306 ft | 439 kts | 311° |
| 2026-05-04 00:48 | 55.60904 | -133.85553 | 34314 ft | 439 kts | 311° |
| 2026-05-04 00:48 | 55.65282 | -133.93139 | 34320 ft | 439 kts | 311° |
| 2026-05-04 00:49 | 55.69646 | -134.00731 | 34315 ft | 439 kts | 311° |
| 2026-05-04 00:49 | 55.73982 | -134.08296 | 34317 ft | 439 kts | 311° |
| 2026-05-04 00:50 | 55.78335 | -134.15915 | 34317 ft | 439 kts | 311° |
| 2026-05-04 00:50 | 55.82682 | -134.23549 | 34341 ft | 439 kts | 310° |
| 2026-05-04 00:51 | 55.87029 | -134.31210 | 34318 ft | 439 kts | 310° |
| 2026-05-04 00:51 | 55.91365 | -134.38879 | 34314 ft | 439 kts | 310° |
| 2026-05-04 00:52 | 55.95674 | -134.46518 | 34327 ft | 436 kts | 310° |
| 2026-05-04 00:52 | 55.99953 | -134.54130 | 34319 ft | 432 kts | 310° |
| 2026-05-04 00:53 | 56.04200 | -134.61715 | 34336 ft | 431 kts | 309° |
| 2026-05-04 00:53 | 56.08444 | -134.69324 | 34328 ft | 432 kts | 309° |
| 2026-05-04 00:54 | 56.12663 | -134.76909 | 34337 ft | 433 kts | 309° |
| 2026-05-04 00:54 | 56.16919 | -134.84587 | 34338 ft | 434 kts | 309° |
| 2026-05-04 00:55 | 56.21181 | -134.92299 | 34340 ft | 435 kts | 309° |
| 2026-05-04 00:55 | 56.25444 | -135.00040 | 34341 ft | 436 kts | 309° |
| 2026-05-04 00:56 | 56.29693 | -135.07780 | 34338 ft | 436 kts | 309° |
| 2026-05-04 00:56 | 56.33961 | -135.15580 | 34338 ft | 437 kts | 309° |
| 2026-05-04 00:57 | 56.37506 | -135.22081 | 34336 ft | 436 kts | 309° |
| 2026-05-04 00:57 | 56.41758 | -135.29901 | 34342 ft | 436 kts | 309° |
| 2026-05-04 00:58 | 56.46005 | -135.37738 | 34339 ft | 436 kts | 309° |
| 2026-05-04 00:58 | 56.50238 | -135.45577 | 34340 ft | 435 kts | 309° |
| 2026-05-04 00:59 | 56.54434 | -135.53373 | 34347 ft | 434 kts | 308° |
| 2026-05-04 00:59 | 56.58648 | -135.61230 | 34345 ft | 434 kts | 308° |
| 2026-05-04 01:00 | 56.62851 | -135.69093 | 34334 ft | 434 kts | 308° |
| 2026-05-04 01:00 | 56.67031 | -135.76942 | 34346 ft | 435 kts | 308° |
| 2026-05-04 01:01 | 56.71239 | -135.84869 | 34341 ft | 435 kts | 308° |
| 2026-05-04 01:01 | 56.75448 | -135.92824 | 34340 ft | 436 kts | 308° |
| 2026-05-04 01:02 | 56.79658 | -136.00808 | 34341 ft | 436 kts | 308° |
| 2026-05-04 01:02 | 56.83857 | -136.08798 | 34369 ft | 436 kts | 307° |
| 2026-05-04 01:03 | 56.88027 | -136.16761 | 34349 ft | 436 kts | 307° |
| 2026-05-04 01:03 | 56.92219 | -136.24795 | 34342 ft | 436 kts | 307° |
| 2026-05-04 01:04 | 56.96407 | -136.32849 | 34342 ft | 436 kts | 307° |
| 2026-05-04 01:04 | 57.00584 | -136.40909 | 34345 ft | 435 kts | 307° |
| 2026-05-04 01:05 | 57.04723 | -136.48924 | 34354 ft | 435 kts | 307° |
| 2026-05-04 01:05 | 57.08883 | -136.57007 | 34345 ft | 435 kts | 307° |
| 2026-05-04 01:06 | 57.13043 | -136.65123 | 34350 ft | 435 kts | 307° |
| 2026-05-04 01:06 | 57.17195 | -136.73248 | 34340 ft | 435 kts | 307° |
| 2026-05-04 01:07 | 57.21349 | -136.81405 | 34343 ft | 435 kts | 307° |
| 2026-05-04 01:07 | 57.25474 | -136.89532 | 34354 ft | 436 kts | 306° |
| 2026-05-04 01:08 | 57.29618 | -136.97728 | 34347 ft | 436 kts | 306° |
| 2026-05-04 01:08 | 57.33760 | -137.05950 | 34348 ft | 436 kts | 306° |
| 2026-05-04 01:09 | 57.37870 | -137.14137 | 34341 ft | 436 kts | 306° |
| 2026-05-04 01:09 | 57.41996 | -137.22384 | 34339 ft | 436 kts | 306° |
| 2026-05-04 01:10 | 57.46121 | -137.30652 | 34338 ft | 436 kts | 305° |
| 2026-05-04 01:10 | 57.50241 | -137.38951 | 34345 ft | 436 kts | 305° |
| 2026-05-04 01:11 | 57.54347 | -137.47210 | 34322 ft | 427 kts | 306° |
| 2026-05-04 01:11 | 57.58339 | -137.55188 | 34326 ft | 418 kts | 304° |
| 2026-05-04 01:12 | 57.62212 | -137.63187 | 34335 ft | 418 kts | 304° |
| 2026-05-04 01:12 | 57.66147 | -137.71260 | 34340 ft | 420 kts | 304° |
| 2026-05-04 01:13 | 57.70089 | -137.79332 | 34344 ft | 420 kts | 304° |
| 2026-05-04 01:13 | 57.73920 | -137.87465 | 34332 ft | 417 kts | 301° |
| 2026-05-04 01:14 | 57.77522 | -137.95960 | 34334 ft | 416 kts | 300° |
| 2026-05-04 01:14 | 57.81094 | -138.04498 | 34319 ft | 416 kts | 300° |
| 2026-05-04 01:15 | 57.84670 | -138.13039 | 34337 ft | 416 kts | 300° |
| 2026-05-04 01:15 | 57.88244 | -138.21582 | 34330 ft | 416 kts | 300° |
| 2026-05-04 01:16 | 57.91812 | -138.30131 | 34328 ft | 415 kts | 300° |
| 2026-05-04 01:16 | 57.95378 | -138.38706 | 34326 ft | 415 kts | 300° |
| 2026-05-04 01:17 | 57.98910 | -138.47228 | 34326 ft | 415 kts | 300° |
| 2026-05-04 01:17 | 58.02464 | -138.55837 | 34365 ft | 415 kts | 299° |
| 2026-05-04 01:18 | 58.06011 | -138.64458 | 34332 ft | 415 kts | 299° |
| 2026-05-04 01:18 | 58.09529 | -138.73042 | 34322 ft | 415 kts | 299° |
| 2026-05-04 01:19 | 58.13052 | -138.81664 | 34319 ft | 413 kts | 299° |
| 2026-05-04 01:19 | 58.16556 | -138.90274 | 34318 ft | 412 kts | 299° |
| 2026-05-04 01:20 | 58.20043 | -138.98870 | 34307 ft | 407 kts | 299° |
| 2026-05-04 01:20 | 58.23447 | -139.07276 | 34311 ft | 399 kts | 298° |
| 2026-05-04 01:21 | 58.26815 | -139.15654 | 34322 ft | 399 kts | 298° |
| 2026-05-04 01:21 | 58.30168 | -139.24024 | 34320 ft | 400 kts | 298° |
| 2026-05-04 01:22 | 58.33547 | -139.32481 | 34319 ft | 401 kts | 298° |
| 2026-05-04 01:22 | 58.36905 | -139.40910 | 34318 ft | 401 kts | 298° |
| 2026-05-04 01:23 | 58.40272 | -139.49390 | 34324 ft | 401 kts | 298° |
| 2026-05-04 01:23 | 58.43639 | -139.57903 | 34319 ft | 401 kts | 298° |
| 2026-05-04 01:24 | 58.46973 | -139.66364 | 34311 ft | 401 kts | 298° |
| 2026-05-04 01:24 | 58.50320 | -139.74886 | 34313 ft | 400 kts | 298° |
| 2026-05-04 01:25 | 58.53667 | -139.83440 | 34312 ft | 400 kts | 297° |
| 2026-05-04 01:25 | 58.56968 | -139.91908 | 34313 ft | 399 kts | 297° |
| 2026-05-04 01:26 | 58.60293 | -140.00467 | 34308 ft | 400 kts | 297° |
| 2026-05-04 01:26 | 58.63614 | -140.09046 | 34318 ft | 399 kts | 297° |
| 2026-05-04 01:27 | 58.66920 | -140.17618 | 34311 ft | 399 kts | 297° |
| 2026-05-04 01:27 | 58.70226 | -140.26223 | 34303 ft | 399 kts | 297° |
| 2026-05-04 01:28 | 58.73517 | -140.34819 | 34303 ft | 399 kts | 297° |
| 2026-05-04 01:28 | 58.76786 | -140.43386 | 34345 ft | 403 kts | 296° |
| 2026-05-04 01:29 | 58.80167 | -140.52330 | 34316 ft | 420 kts | 296° |
| 2026-05-04 01:29 | 58.83298 | -140.62014 | 34313 ft | 429 kts | 292° |
| 2026-05-04 01:30 | 58.86363 | -140.71937 | 34300 ft | 429 kts | 292° |
| 2026-05-04 01:30 | 58.89397 | -140.81758 | 34296 ft | 427 kts | 292° |
| 2026-05-04 01:31 | 58.92449 | -140.91647 | 34327 ft | 426 kts | 292° |
| 2026-05-04 01:31 | 58.95471 | -141.01469 | 34308 ft | 426 kts | 292° |
| 2026-05-04 01:32 | 58.98496 | -141.11342 | 34299 ft | 425 kts | 292° |
| 2026-05-04 01:32 | 59.01513 | -141.21231 | 34285 ft | 425 kts | 292° |
| 2026-05-04 01:33 | 59.04524 | -141.31142 | 34296 ft | 425 kts | 291° |
| 2026-05-04 01:33 | 59.07498 | -141.40975 | 34296 ft | 425 kts | 291° |
| 2026-05-04 01:34 | 59.10495 | -141.50925 | 34298 ft | 426 kts | 291° |
| 2026-05-04 01:34 | 59.13480 | -141.60878 | 34291 ft | 426 kts | 291° |
| 2026-05-04 01:35 | 59.16463 | -141.70863 | 34285 ft | 426 kts | 291° |
| 2026-05-04 01:35 | 59.19421 | -141.80812 | 34285 ft | 426 kts | 291° |
| 2026-05-04 01:36 | 59.22385 | -141.90822 | 34282 ft | 426 kts | 291° |
| 2026-05-04 01:36 | 59.25344 | -142.00858 | 34305 ft | 426 kts | 290° |
| 2026-05-04 01:37 | 59.28300 | -142.10930 | 34285 ft | 426 kts | 290° |
| 2026-05-04 01:37 | 59.31241 | -142.20992 | 34279 ft | 426 kts | 290° |
| 2026-05-04 01:38 | 59.34161 | -142.31027 | 34282 ft | 425 kts | 290° |
| 2026-05-04 01:38 | 59.37084 | -142.41117 | 34277 ft | 425 kts | 290° |
| 2026-05-04 01:39 | 59.39998 | -142.51219 | 34299 ft | 425 kts | 290° |
| 2026-05-04 01:39 | 59.42911 | -142.61364 | 34269 ft | 426 kts | 289° |
| 2026-05-04 01:40 | 59.45800 | -142.71469 | 34269 ft | 426 kts | 289° |
| 2026-05-04 01:40 | 59.48698 | -142.81649 | 34263 ft | 426 kts | 289° |
| 2026-05-04 01:41 | 59.51584 | -142.91834 | 34258 ft | 426 kts | 289° |
| 2026-05-04 01:41 | 59.54463 | -143.02039 | 34256 ft | 426 kts | 289° |